Time;durP1;ratioP1;P1;durP2;ratioP2;P2;SDS_P1;SDS_P2;PMS_P1;PMS_P2;Temp;Humidity;BMP_temperature;BMP_pressure;BME280_temperature;BME280_humidity;BME280_pressure;Samples;Min_cycle;Max_cycle;Signal;HPM_P1;HPM_P2
2022/05/04 00:01:11;;;;;;;0.00;0.00;;;;;;;;;;5005144;28;20579;-72
2022/05/04 00:03:39;;;;;;;0.10;0.10;;;;;;;;;;5014809;28;20235;-71
2022/05/04 00:06:05;;;;;;;0.10;0.10;;;;;;;;;;5004930;28;20241;-71
2022/05/04 00:08:32;;;;;;;0.10;0.10;;;;;;;;;;5014438;28;20215;-71
2022/05/04 00:10:58;;;;;;;0.00;0.00;;;;;;;;;;5003958;28;20251;-72
2022/05/04 00:13:24;;;;;;;0.10;0.10;;;;;;;;;;5015761;28;20212;-72
2022/05/04 00:15:50;;;;;;;0.10;0.10;;;;;;;;;;5003018;28;20242;-72
2022/05/04 00:18:18;;;;;;;0.10;0.10;;;;;;;;;;5016632;28;20277;-72
2022/05/04 00:20:45;;;;;;;0.10;0.10;;;;;;;;;;5001910;28;20343;-72
2022/05/04 00:23:11;;;;;;;0.10;0.10;;;;;;;;;;5017300;28;20206;-71
2022/05/04 00:25:37;;;;;;;0.10;0.10;;;;;;;;;;5001088;28;20246;-72
2022/05/04 00:28:04;;;;;;;0.10;0.10;;;;;;;;;;5018009;28;20207;-71
2022/05/04 00:30:31;;;;;;;0.10;0.10;;;;;;;;;;5000107;28;20243;-71
2022/05/04 00:32:57;;;;;;;0.10;0.10;;;;;;;;;;5018629;28;20214;-71
2022/05/04 00:35:25;;;;;;;0.10;0.10;;;;;;;;;;4999243;28;20247;-72
2022/05/04 00:37:51;;;;;;;0.10;0.10;;;;;;;;;;5019508;28;20421;-71
2022/05/04 00:40:17;;;;;;;0.20;0.20;;;;;;;;;;4998446;28;20210;-72
2022/05/04 00:42:44;;;;;;;0.10;0.10;;;;;;;;;;5020494;28;20209;-71
2022/05/04 00:45:10;;;;;;;0.00;0.00;;;;;;;;;;4997230;28;20209;-73
2022/05/04 00:47:37;;;;;;;0.07;0.07;;;;;;;;;;5020916;28;20210;-73
2022/05/04 00:50:04;;;;;;;0.10;0.10;;;;;;;;;;5006387;28;20212;-72
2022/05/04 00:52:34;;;;;;;0.10;0.10;;;;;;;;;;4995150;28;20276;-71
2022/05/04 00:55:00;;;;;;;0.00;0.00;;;;;;;;;;5006344;28;20318;-71
2022/05/04 01:00:09;;;;;;;0.00;0.00;;;;;;;;;;4996489;28;20195;-72
2022/05/04 01:02:37;;;;;;;0.10;0.10;;;;;;;;;;5019621;28;20205;-71
2022/05/04 01:05:04;;;;;;;0.10;0.10;;;;;;;;;;5006323;28;20241;-72
2022/05/04 01:07:31;;;;;;;0.10;0.10;;;;;;;;;;4994853;28;20555;-70
2022/05/04 01:09:57;;;;;;;0.10;0.10;;;;;;;;;;5006045;28;20206;-71
2022/05/04 01:12:24;;;;;;;0.03;0.03;;;;;;;;;;5011145;28;20242;-70
2022/05/04 01:14:50;;;;;;;0.00;0.00;;;;;;;;;;5005996;28;20366;-71
2022/05/04 01:17:16;;;;;;;0.10;0.10;;;;;;;;;;5011165;28;20249;-72
2022/05/04 01:19:42;;;;;;;0.10;0.10;;;;;;;;;;5006175;28;20448;-71
2022/05/04 01:22:10;;;;;;;0.10;0.10;;;;;;;;;;5011155;28;20242;-72
2022/05/04 01:24:36;;;;;;;0.10;0.10;;;;;;;;;;5005659;28;20443;-71
2022/05/04 01:27:03;;;;;;;0.10;0.10;;;;;;;;;;5010688;28;20289;-72
2022/05/04 01:29:29;;;;;;;0.10;0.10;;;;;;;;;;5006089;28;20215;-72
2022/05/04 01:31:55;;;;;;;0.10;0.10;;;;;;;;;;5010058;28;20605;-71
2022/05/04 01:34:26;;;;;;;0.10;0.10;;;;;;;;;;5007118;28;20239;-71
2022/05/04 01:36:52;;;;;;;0.10;0.10;;;;;;;;;;5009162;28;20576;-73
2022/05/04 01:39:20;;;;;;;0.10;0.10;;;;;;;;;;5006876;28;20244;-71
2022/05/04 01:44:36;;;;;;;0.10;0.10;;;;;;;;;;4994977;28;20190;-71
2022/05/04 01:47:02;;;;;;;0.10;0.10;;;;;;;;;;5010455;28;20244;-71
2022/05/04 01:49:28;;;;;;;0.10;0.10;;;;;;;;;;5006050;28;20206;-72
2022/05/04 01:51:55;;;;;;;0.10;0.10;;;;;;;;;;5009478;28;20324;-72
2022/05/04 01:54:23;;;;;;;0.10;0.10;;;;;;;;;;5006966;28;20236;-72
2022/05/04 01:56:49;;;;;;;0.00;0.00;;;;;;;;;;5008578;28;20291;-72
2022/05/04 01:59:16;;;;;;;0.10;0.10;;;;;;;;;;5007696;28;20233;-72
2022/05/04 02:01:42;;;;;;;0.10;0.10;;;;;;;;;;5007701;28;20343;-71
2022/05/04 02:04:10;;;;;;;0.10;0.10;;;;;;;;;;5008109;28;20209;-71
2022/05/04 02:06:36;;;;;;;0.10;0.10;;;;;;;;;;5006373;28;20255;-72
2022/05/04 02:09:03;;;;;;;0.00;0.00;;;;;;;;;;5008608;28;20252;-71
2022/05/04 02:11:32;;;;;;;0.10;0.10;;;;;;;;;;5005701;28;20242;-73
2022/05/04 02:13:59;;;;;;;0.10;0.10;;;;;;;;;;5009099;28;20236;-72
2022/05/04 02:16:25;;;;;;;0.10;0.10;;;;;;;;;;5004855;28;20308;-72
2022/05/04 02:18:51;;;;;;;0.10;0.10;;;;;;;;;;5010040;28;20211;-72
2022/05/04 02:21:19;;;;;;;0.00;0.00;;;;;;;;;;5003951;28;20248;-71
2022/05/04 02:23:45;;;;;;;0.10;0.10;;;;;;;;;;5010714;28;20209;-72
2022/05/04 02:26:11;;;;;;;0.10;0.10;;;;;;;;;;5003022;28;20306;-71
2022/05/04 02:28:39;;;;;;;0.00;0.00;;;;;;;;;;5011148;28;20209;-71
2022/05/04 02:31:05;;;;;;;0.10;0.10;;;;;;;;;;5001762;28;20248;-71
2022/05/04 02:33:32;;;;;;;0.10;0.10;;;;;;;;;;5012440;28;20209;-71
2022/05/04 02:38:42;;;;;;;0.10;0.10;;;;;;;;;;5010945;28;20264;-71
2022/05/04 02:41:08;;;;;;;0.10;0.10;;;;;;;;;;5002292;28;20245;-73
2022/05/04 02:43:34;;;;;;;0.10;0.10;;;;;;;;;;5011373;28;20321;-71
2022/05/04 02:46:13;;;;;;;0.10;0.10;;;;;;;;;;5001509;28;20509;-71
2022/05/04 02:48:39;;;;;;;0.10;0.10;;;;;;;;;;5011277;28;20271;-72
2022/05/04 02:51:06;;;;;;;0.10;0.10;;;;;;;;;;5002111;28;20241;-71
2022/05/04 02:53:32;;;;;;;0.10;0.10;;;;;;;;;;5011268;28;20245;-71
2022/05/04 02:55:58;;;;;;;0.10;0.10;;;;;;;;;;5000863;28;20251;-71
2022/05/04 02:58:24;;;;;;;0.10;0.10;;;;;;;;;;5012633;28;20198;-72
2022/05/04 03:00:51;;;;;;;0.10;0.10;;;;;;;;;;5000449;28;20610;-71
2022/05/04 03:03:18;;;;;;;0.10;0.10;;;;;;;;;;5013357;28;20426;-72
2022/05/04 03:05:44;;;;;;;0.10;0.10;;;;;;;;;;4998972;28;20248;-70
2022/05/04 03:08:10;;;;;;;0.10;0.10;;;;;;;;;;5014181;28;20228;-73
2022/05/04 03:13:17;;;;;;;0.10;0.10;;;;;;;;;;5012661;28;20190;-72
2022/05/04 03:15:43;;;;;;;0.10;0.10;;;;;;;;;;4998691;28;20274;-71
2022/05/04 03:18:09;;;;;;;0.10;0.10;;;;;;;;;;5014311;28;20230;-72
2022/05/04 03:20:37;;;;;;;0.10;0.10;;;;;;;;;;4997902;28;20240;-71
2022/05/04 03:23:03;;;;;;;0.10;0.10;;;;;;;;;;5015162;28;20270;-72
2022/05/04 03:25:29;;;;;;;0.10;0.10;;;;;;;;;;4996250;28;20271;-72
2022/05/04 03:27:55;;;;;;;0.10;0.10;;;;;;;;;;5015853;28;20272;-72
2022/05/04 03:30:22;;;;;;;0.10;0.10;;;;;;;;;;4995832;28;20233;-71
2022/05/04 03:32:48;;;;;;;0.10;0.10;;;;;;;;;;5016847;28;20217;-71
2022/05/04 03:35:14;;;;;;;0.10;0.10;;;;;;;;;;4995033;28;20594;-71
2022/05/04 03:37:42;;;;;;;0.10;0.10;;;;;;;;;;5017814;28;20250;-71
2022/05/04 03:40:10;;;;;;;0.10;0.10;;;;;;;;;;4993945;28;20206;-72
2022/05/04 03:42:36;;;;;;;0.10;0.10;;;;;;;;;;5018016;28;20237;-71
2022/05/04 03:45:02;;;;;;;0.10;0.10;;;;;;;;;;5003791;28;20204;-71
2022/05/04 03:47:29;;;;;;;0.10;0.10;;;;;;;;;;5008841;28;20244;-71
2022/05/04 03:49:55;;;;;;;0.10;0.10;;;;;;;;;;5003682;28;20264;-71
2022/05/04 03:52:22;;;;;;;0.10;0.10;;;;;;;;;;5008600;28;20248;-71
2022/05/04 03:54:49;;;;;;;0.10;0.10;;;;;;;;;;5003629;28;20233;-71
2022/05/04 03:57:15;;;;;;;0.10;0.10;;;;;;;;;;5008829;28;20243;-71
2022/05/04 03:59:42;;;;;;;0.10;0.10;;;;;;;;;;5003259;28;20209;-70
2022/05/04 04:02:08;;;;;;;0.10;0.10;;;;;;;;;;5008468;28;20301;-72
2022/05/04 04:04:34;;;;;;;0.10;0.10;;;;;;;;;;5003569;28;20213;-72
2022/05/04 04:07:01;;;;;;;0.10;0.10;;;;;;;;;;5007949;28;20450;-72
2022/05/04 04:09:27;;;;;;;0.10;0.10;;;;;;;;;;5004197;28;20417;-71
2022/05/04 04:11:55;;;;;;;0.10;0.10;;;;;;;;;;5007542;28;20644;-70
2022/05/04 04:14:21;;;;;;;0.10;0.10;;;;;;;;;;5004885;28;20237;-72
2022/05/04 04:16:47;;;;;;;0.10;0.10;;;;;;;;;;5006286;28;20242;-72
2022/05/04 04:19:13;;;;;;;0.10;0.10;;;;;;;;;;5005935;28;20224;-71
2022/05/04 04:21:50;;;;;;;0.10;0.10;;;;;;;;;;5005368;28;20430;-71
2022/05/04 04:24:17;;;;;;;0.10;0.10;;;;;;;;;;5004799;28;20580;-71
2022/05/04 04:26:43;;;;;;;0.10;0.10;;;;;;;;;;5005751;28;20241;-72
2022/05/04 04:29:11;;;;;;;0.10;0.10;;;;;;;;;;5006215;28;20249;-71
2022/05/04 04:31:37;;;;;;;0.10;0.10;;;;;;;;;;5004525;28;20375;-71
2022/05/04 04:34:03;;;;;;;0.10;0.10;;;;;;;;;;5006929;28;20553;-73
2022/05/04 04:36:30;;;;;;;0.10;0.10;;;;;;;;;;5006135;28;20251;-72
2022/05/04 04:38:56;;;;;;;0.10;0.10;;;;;;;;;;5011231;28;20547;-71
2022/05/04 04:41:23;;;;;;;0.10;0.10;;;;;;;;;;5006549;28;20279;-72
2022/05/04 04:43:49;;;;;;;0.10;0.10;;;;;;;;;;5011996;28;20245;-71
2022/05/04 04:46:16;;;;;;;0.10;0.10;;;;;;;;;;5005612;28;20299;-71
2022/05/04 04:48:43;;;;;;;0.10;0.10;;;;;;;;;;5012574;28;20331;-72
2022/05/04 04:51:09;;;;;;;0.10;0.10;;;;;;;;;;5004576;28;20244;-71
2022/05/04 04:53:35;;;;;;;0.10;0.10;;;;;;;;;;5013516;28;20207;-71
2022/05/04 04:56:02;;;;;;;0.10;0.10;;;;;;;;;;5003359;28;20290;-71
2022/05/04 04:58:28;;;;;;;0.10;0.10;;;;;;;;;;5014427;28;20209;-70
2022/05/04 05:00:54;;;;;;;0.10;0.10;;;;;;;;;;5002339;28;20338;-71
2022/05/04 05:03:22;;;;;;;0.10;0.10;;;;;;;;;;5015389;28;20238;-70
2022/05/04 05:05:48;;;;;;;0.00;0.00;;;;;;;;;;5001393;28;20290;-71
2022/05/04 05:08:14;;;;;;;0.10;0.10;;;;;;;;;;5016189;28;20500;-71
2022/05/04 05:10:40;;;;;;;0.10;0.10;;;;;;;;;;5000592;28;20451;-72
2022/05/04 05:13:07;;;;;;;0.10;0.10;;;;;;;;;;5017031;28;20209;-71
2022/05/04 05:18:18;;;;;;;0.10;0.10;;;;;;;;;;5015506;28;20268;-71
2022/05/04 05:20:46;;;;;;;0.10;0.10;;;;;;;;;;5000721;28;20247;-72
2022/05/04 05:23:12;;;;;;;0.10;0.10;;;;;;;;;;5016253;28;20497;-71
2022/05/04 05:25:38;;;;;;;0.10;0.10;;;;;;;;;;5000143;28;20253;-71
2022/05/04 05:28:06;;;;;;;0.10;0.10;;;;;;;;;;5016827;28;20321;-71
2022/05/04 05:30:32;;;;;;;0.10;0.10;;;;;;;;;;4998735;28;20510;-70
2022/05/04 05:32:58;;;;;;;0.10;0.10;;;;;;;;;;5017537;28;20382;-71
2022/05/04 05:35:24;;;;;;;0.10;0.10;;;;;;;;;;4997772;28;20221;-70
2022/05/04 05:37:52;;;;;;;0.10;0.10;;;;;;;;;;5018400;28;20236;-70
2022/05/04 05:40:18;;;;;;;0.10;0.10;;;;;;;;;;4997468;28;20210;-72
2022/05/04 05:42:45;;;;;;;0.10;0.10;;;;;;;;;;5018916;28;20218;-71
2022/05/04 05:45:11;;;;;;;0.10;0.10;;;;;;;;;;4996101;28;20224;-71
2022/05/04 05:47:38;;;;;;;0.10;0.10;;;;;;;;;;5018951;28;20365;-70
2022/05/04 05:50:05;;;;;;;0.10;0.10;;;;;;;;;;5005258;28;20223;-71
2022/05/04 05:52:34;;;;;;;0.10;0.10;;;;;;;;;;4993942;28;20216;-72
2022/05/04 05:55:01;;;;;;;0.10;0.10;;;;;;;;;;5005509;28;20216;-72
2022/05/04 05:57:28;;;;;;;0.10;0.10;;;;;;;;;;5010231;28;20285;-72
2022/05/04 05:59:54;;;;;;;0.10;0.10;;;;;;;;;;5005414;28;20558;-71
2022/05/04 06:02:22;;;;;;;0.10;0.10;;;;;;;;;;5010467;28;20486;-72
2022/05/04 06:04:48;;;;;;;0.10;0.10;;;;;;;;;;5005329;28;20259;-71
2022/05/04 06:07:15;;;;;;;0.10;0.10;;;;;;;;;;5010456;28;20238;-71
2022/05/04 06:09:41;;;;;;;0.07;0.07;;;;;;;;;;5005343;28;20263;-72
2022/05/04 06:12:10;;;;;;;0.10;0.10;;;;;;;;;;5010265;28;20241;-71
2022/05/04 06:14:36;;;;;;;0.10;0.10;;;;;;;;;;5005322;28;20224;-71
2022/05/04 06:17:02;;;;;;;0.10;0.10;;;;;;;;;;5009483;28;20343;-71
2022/05/04 06:19:28;;;;;;;0.10;0.10;;;;;;;;;;5004922;28;20254;-70
2022/05/04 06:21:54;;;;;;;0.10;0.10;;;;;;;;;;5008540;28;20546;-71
2022/05/04 06:24:21;;;;;;;0.10;0.10;;;;;;;;;;5006373;28;20488;-70
2022/05/04 06:26:47;;;;;;;0.10;0.10;;;;;;;;;;5007323;28;20533;-75
2022/05/04 06:29:15;;;;;;;0.10;0.10;;;;;;;;;;5006949;28;20375;-74
2022/05/04 06:34:27;;;;;;;0.10;0.10;;;;;;;;;;4987635;28;20274;-73
2022/05/04 06:36:53;;;;;;;0.10;0.10;;;;;;;;;;5006587;28;20307;-73
2022/05/04 06:39:19;;;;;;;0.10;0.10;;;;;;;;;;5007319;28;20238;-74
2022/05/04 06:41:47;;;;;;;0.10;0.10;;;;;;;;;;5006974;28;20281;-73
2022/05/04 06:44:15;;;;;;;0.10;0.10;;;;;;;;;;5006918;28;20463;-75
2022/05/04 06:46:41;;;;;;;0.10;0.10;;;;;;;;;;5006473;28;20655;-74
2022/05/04 06:49:08;;;;;;;0.10;0.10;;;;;;;;;;5007531;28;20230;-73
2022/05/04 06:51:35;;;;;;;0.10;0.10;;;;;;;;;;5005466;28;20634;-72
2022/05/04 06:54:01;;;;;;;0.10;0.10;;;;;;;;;;5008246;28;20285;-73
2022/05/04 06:56:28;;;;;;;0.10;0.10;;;;;;;;;;5004316;28;20276;-74
2022/05/04 06:58:54;;;;;;;0.10;0.10;;;;;;;;;;5007841;28;20483;-75
2022/05/04 07:01:21;;;;;;;0.10;0.10;;;;;;;;;;5003156;28;20243;-72
2022/05/04 07:03:48;;;;;;;0.10;0.10;;;;;;;;;;5009852;28;20257;-74
2022/05/04 07:06:14;;;;;;;0.10;0.10;;;;;;;;;;5002677;28;20237;-74
2022/05/04 07:08:41;;;;;;;0.10;0.10;;;;;;;;;;5010205;28;20211;-72
2022/05/04 07:11:07;;;;;;;0.10;0.10;;;;;;;;;;5001711;28;20546;-72
2022/05/04 07:13:33;;;;;;;0.10;0.10;;;;;;;;;;5011356;28;20215;-72
2022/05/04 07:16:00;;;;;;;0.10;0.10;;;;;;;;;;5000662;28;20473;-71
2022/05/04 07:18:27;;;;;;;0.10;0.10;;;;;;;;;;5012159;28;20220;-72
2022/05/04 07:20:53;;;;;;;0.10;0.10;;;;;;;;;;5000100;28;20288;-71
2022/05/04 07:23:19;;;;;;;0.00;0.00;;;;;;;;;;5012682;28;20213;-72
2022/05/04 07:25:46;;;;;;;0.00;0.00;;;;;;;;;;4998968;28;20246;-72
2022/05/04 07:28:12;;;;;;;0.10;0.10;;;;;;;;;;5013637;28;20209;-71
2022/05/04 07:30:38;;;;;;;0.10;0.10;;;;;;;;;;4997813;28;20276;-72
2022/05/04 07:33:04;;;;;;;0.10;0.10;;;;;;;;;;5014560;28;20514;-72
2022/05/04 07:35:32;;;;;;;0.10;0.10;;;;;;;;;;4996782;28;20274;-70
2022/05/04 07:37:58;;;;;;;0.10;0.10;;;;;;;;;;5015220;28;20236;-72
2022/05/04 07:43:08;;;;;;;0.10;0.10;;;;;;;;;;5014188;28;20202;-71
2022/05/04 07:45:35;;;;;;;0.10;0.10;;;;;;;;;;4997232;28;20244;-70
2022/05/04 07:48:01;;;;;;;0.10;0.10;;;;;;;;;;5014633;28;20380;-80
2022/05/04 07:50:28;;;;;;;0.00;0.00;;;;;;;;;;4996357;28;20343;-83
2022/05/04 07:52:56;;;;;;;0.10;0.10;;;;;;;;;;5015434;28;20243;-78
2022/05/04 07:55:22;;;;;;;0.07;0.07;;;;;;;;;;4995354;28;20238;-78
2022/05/04 07:57:49;;;;;;;0.10;0.10;;;;;;;;;;5015896;28;20232;-70
2022/05/04 08:05:43;;;;;;;0.10;0.10;;;;;;;;;;4997683;28;20304;-69
2022/05/04 08:08:11;;;;;;;0.10;0.10;;;;;;;;;;5013408;28;20246;-70
2022/05/04 08:10:37;;;;;;;0.10;0.10;;;;;;;;;;4997631;28;20252;-69
2022/05/04 08:13:03;;;;;;;0.10;0.10;;;;;;;;;;5018265;28;20512;-70
2022/05/04 08:15:31;;;;;;;0.10;0.10;;;;;;;;;;5000228;28;20245;-71
2022/05/04 08:17:58;;;;;;;0.00;0.00;;;;;;;;;;5018834;28;20261;-71
2022/05/04 08:20:25;;;;;;;0.10;0.10;;;;;;;;;;4999362;28;20304;-70
2022/05/04 08:22:51;;;;;;;0.10;0.10;;;;;;;;;;5019432;28;20206;-70
2022/05/04 08:25:19;;;;;;;0.10;0.10;;;;;;;;;;4998358;28;20210;-71
2022/05/04 08:27:45;;;;;;;0.10;0.10;;;;;;;;;;5020152;28;20260;-71
2022/05/04 08:30:12;;;;;;;0.10;0.10;;;;;;;;;;4997167;28;20237;-69
2022/05/04 08:32:39;;;;;;;0.10;0.10;;;;;;;;;;5020943;28;20257;-70
2022/05/04 08:35:05;;;;;;;0.00;0.00;;;;;;;;;;5001658;28;20440;-69
2022/05/04 08:37:32;;;;;;;0.03;0.03;;;;;;;;;;5021564;28;20234;-68
2022/05/04 08:39:58;;;;;;;0.10;0.10;;;;;;;;;;5006684;28;20434;-68
2022/05/04 08:42:29;;;;;;;0.00;0.00;;;;;;;;;;5011694;28;20312;-69
2022/05/04 08:44:57;;;;;;;0.00;0.00;;;;;;;;;;5006637;28;20208;-68
2022/05/04 08:47:27;;;;;;;0.00;0.00;;;;;;;;;;5011431;28;20307;-67
2022/05/04 08:49:54;;;;;;;0.05;0.05;;;;;;;;;;5006601;28;20198;-67
2022/05/04 08:52:21;;;;;;;0.10;0.10;;;;;;;;;;5011321;28;20249;-67
2022/05/04 08:54:48;;;;;;;0.10;0.10;;;;;;;;;;5006421;28;20278;-67
2022/05/04 08:57:15;;;;;;;0.10;0.10;;;;;;;;;;5011325;28;20340;-68
2022/05/04 08:59:43;;;;;;;0.10;0.10;;;;;;;;;;5006482;28;20216;-67
2022/05/04 09:02:10;;;;;;;0.10;0.10;;;;;;;;;;5011188;28;20250;-67
2022/05/04 09:04:36;;;;;;;0.08;0.08;;;;;;;;;;5005938;28;20408;-67
2022/05/04 09:07:02;;;;;;;0.05;0.05;;;;;;;;;;5010518;28;20281;-67
2022/05/04 09:09:29;;;;;;;0.10;0.10;;;;;;;;;;5006934;28;20222;-68
2022/05/04 09:11:56;;;;;;;0.05;0.05;;;;;;;;;;5009963;28;20252;-68
2022/05/04 09:14:25;;;;;;;0.00;0.00;;;;;;;;;;5007433;28;20240;-68
2022/05/04 09:16:53;;;;;;;0.10;0.10;;;;;;;;;;5009560;28;20304;-67
2022/05/04 09:19:20;;;;;;;0.10;0.10;;;;;;;;;;5007672;28;20258;-67
2022/05/04 09:21:47;;;;;;;0.00;0.00;;;;;;;;;;5008214;28;20467;-70
2022/05/04 09:24:15;;;;;;;0.10;0.10;;;;;;;;;;5007860;28;20234;-68
2022/05/04 09:26:41;;;;;;;0.10;0.10;;;;;;;;;;5007505;28;20756;-71
2022/05/04 09:29:08;;;;;;;0.05;0.05;;;;;;;;;;5009147;28;20431;-71
2022/05/04 09:31:35;;;;;;;0.00;0.00;;;;;;;;;;5006708;28;20289;-72
2022/05/04 09:34:04;;;;;;;0.00;0.00;;;;;;;;;;5009523;28;20209;-70
2022/05/04 09:36:34;;;;;;;0.00;0.00;;;;;;;;;;5005951;28;20568;-71
2022/05/04 09:47:17;;;;;;;0.10;0.10;;;;;;;;;;5010721;28;20592;-71
2022/05/04 09:49:47;;;;;;;0.10;0.10;;;;;;;;;;5005796;28;20499;-71
2022/05/04 09:52:14;;;;;;;0.10;0.10;;;;;;;;;;5010417;28;20241;-71
2022/05/04 09:54:40;;;;;;;0.03;0.03;;;;;;;;;;5005320;28;20209;-71
2022/05/04 09:57:07;;;;;;;0.03;0.03;;;;;;;;;;5010307;28;20243;-68
2022/05/04 09:59:35;;;;;;;0.10;0.10;;;;;;;;;;5005315;28;20211;-68
2022/05/04 10:02:03;;;;;;;0.10;0.10;;;;;;;;;;5009936;28;20246;-75
2022/05/04 10:04:32;;;;;;;0.10;0.10;;;;;;;;;;5007047;28;20215;-77
2022/05/04 10:07:00;;;;;;;0.05;0.05;;;;;;;;;;5010868;28;20274;-71
2022/05/04 10:09:27;;;;;;;0.10;0.10;;;;;;;;;;5005908;28;20242;-72
2022/05/04 10:11:57;;;;;;;0.03;0.03;;;;;;;;;;5008806;28;20330;-72
2022/05/04 10:14:24;;;;;;;0.00;0.00;;;;;;;;;;5006408;28;20213;-72
2022/05/04 10:16:53;;;;;;;0.00;0.00;;;;;;;;;;5008367;28;20240;-75
2022/05/04 10:19:21;;;;;;;0.00;0.00;;;;;;;;;;5006309;28;20211;-78
2022/05/04 10:21:49;;;;;;;0.00;0.00;;;;;;;;;;5008228;28;20260;-71
2022/05/04 10:24:18;;;;;;;0.10;0.10;;;;;;;;;;5009777;28;20463;-72
2022/05/04 10:26:46;;;;;;;0.00;0.00;;;;;;;;;;5011291;28;20289;-75
2022/05/04 10:32:08;;;;;;;0.10;0.10;;;;;;;;;;5014930;28;20268;-79
2022/05/04 10:34:34;;;;;;;0.08;0.08;;;;;;;;;;5008535;28;20223;-79
2022/05/04 10:37:01;;;;;;;0.00;0.00;;;;;;;;;;5010852;28;20519;-79
2022/05/04 10:39:28;;;;;;;0.00;0.00;;;;;;;;;;5007386;28;20259;-78
2022/05/04 10:41:55;;;;;;;0.00;0.00;;;;;;;;;;5011040;28;20306;-80
2022/05/04 10:44:41;;;;;;;0.00;0.00;;;;;;;;;;5007077;28;20276;-78
2022/05/04 10:47:07;;;;;;;0.00;0.00;;;;;;;;;;5011580;28;20285;-76
2022/05/04 10:49:35;;;;;;;0.03;0.03;;;;;;;;;;5004901;28;20242;-76
2022/05/04 10:52:04;;;;;;;0.10;0.10;;;;;;;;;;5008552;28;20252;-75
2022/05/04 10:54:33;;;;;;;0.00;0.00;;;;;;;;;;5007854;28;20209;-72
2022/05/04 10:57:03;;;;;;;0.00;0.00;;;;;;;;;;5011413;28;20239;-77
2022/05/04 10:59:36;;;;;;;0.10;0.10;;;;;;;;;;5007278;28;20209;-74
2022/05/04 11:02:04;;;;;;;0.10;0.10;;;;;;;;;;5010497;28;20273;-76
2022/05/04 11:04:36;;;;;;;0.00;0.00;;;;;;;;;;5007988;28;20223;-78
2022/05/04 11:07:07;;;;;;;0.10;0.10;;;;;;;;;;4998368;28;20251;-79
2022/05/04 11:09:42;;;;;;;0.05;0.05;;;;;;;;;;5005165;28;20214;-78
2022/05/04 11:12:10;;;;;;;0.10;0.10;;;;;;;;;;5010738;28;20245;-76
2022/05/04 11:14:41;;;;;;;0.00;0.00;;;;;;;;;;5004385;28;20373;-77
2022/05/04 11:17:09;;;;;;;0.00;0.00;;;;;;;;;;5007821;28;20254;-75
2022/05/04 11:19:36;;;;;;;0.00;0.00;;;;;;;;;;5021728;28;20207;-72
2022/05/04 11:22:02;;;;;;;0.20;0.20;;;;;;;;;;5011829;28;20410;-75
2022/05/04 11:24:29;;;;;;;0.10;0.10;;;;;;;;;;5021508;28;20468;-75
2022/05/04 11:26:57;;;;;;;0.10;0.10;;;;;;;;;;5011699;28;20314;-75
2022/05/04 11:29:24;;;;;;;0.00;0.00;;;;;;;;;;5022290;28;20250;-74
2022/05/04 11:31:54;;;;;;;0.10;0.10;;;;;;;;;;5012182;28;20505;-72
2022/05/04 11:34:21;;;;;;;0.00;0.00;;;;;;;;;;5021418;28;20195;-73
2022/05/04 11:36:48;;;;;;;0.10;0.10;;;;;;;;;;5008679;28;20268;-73
2022/05/04 11:39:16;;;;;;;0.00;0.00;;;;;;;;;;5006902;28;20349;-72
2022/05/04 11:41:43;;;;;;;0.50;0.50;;;;;;;;;;5006862;28;20309;-73
2022/05/04 11:44:11;;;;;;;0.10;0.10;;;;;;;;;;5007626;28;20227;-74
2022/05/04 11:46:37;;;;;;;0.10;0.10;;;;;;;;;;5008741;28;20288;-71
2022/05/04 11:49:07;;;;;;;0.10;0.10;;;;;;;;;;5011588;28;20211;-71
2022/05/04 11:51:35;;;;;;;0.08;0.08;;;;;;;;;;5009665;28;20250;-73
2022/05/04 11:54:01;;;;;;;0.00;0.00;;;;;;;;;;5012905;28;20562;-75
2022/05/04 11:56:27;;;;;;;0.00;0.00;;;;;;;;;;5009644;28;20242;-75
2022/05/04 11:58:54;;;;;;;0.00;0.00;;;;;;;;;;5013795;28;20267;-73
2022/05/04 12:01:22;;;;;;;0.10;0.10;;;;;;;;;;5007811;28;20248;-75
2022/05/04 12:03:49;;;;;;;0.00;0.00;;;;;;;;;;5013619;28;20207;-73
2022/05/04 12:06:16;;;;;;;0.10;0.10;;;;;;;;;;5007902;28;20249;-74
2022/05/04 12:08:42;;;;;;;0.10;0.10;;;;;;;;;;5014387;28;20211;-75
2022/05/04 12:11:10;;;;;;;0.00;0.00;;;;;;;;;;5005999;28;20359;-74
2022/05/04 12:13:37;;;;;;;0.00;0.00;;;;;;;;;;5014050;28;20210;-76
2022/05/04 12:16:04;;;;;;;0.10;0.10;;;;;;;;;;5004707;28;20568;-75
2022/05/04 12:18:33;;;;;;;0.00;0.00;;;;;;;;;;5014538;28;20238;-74
2022/05/04 12:21:04;;;;;;;0.00;0.00;;;;;;;;;;5003838;28;20243;-73
2022/05/04 12:23:31;;;;;;;0.00;0.00;;;;;;;;;;5014658;28;20506;-74
2022/05/04 12:25:57;;;;;;;0.00;0.00;;;;;;;;;;5003589;28;20242;-75
2022/05/04 12:28:24;;;;;;;0.00;0.00;;;;;;;;;;5015522;28;20395;-73
2022/05/04 12:33:38;;;;;;;0.03;0.03;;;;;;;;;;5015057;28;20505;-75
2022/05/04 12:36:07;;;;;;;0.00;0.00;;;;;;;;;;5004190;28;20250;-73
2022/05/04 12:38:34;;;;;;;0.00;0.00;;;;;;;;;;5013539;28;20232;-73
2022/05/04 12:41:01;;;;;;;0.00;0.00;;;;;;;;;;5003523;28;20608;-74
2022/05/04 12:43:37;;;;;;;0.00;0.00;;;;;;;;;;5014804;28;20255;-75
2022/05/04 12:46:05;;;;;;;0.00;0.00;;;;;;;;;;5003189;28;20310;-74
2022/05/04 12:48:36;;;;;;;0.00;0.00;;;;;;;;;;5014984;28;20458;-73
2022/05/04 12:51:09;;;;;;;0.00;0.00;;;;;;;;;;5003864;28;20250;-74
2022/05/04 12:53:41;;;;;;;0.00;0.00;;;;;;;;;;5014045;28;20441;-73
2022/05/04 12:58:54;;;;;;;0.00;0.00;;;;;;;;;;5011497;28;20267;-74
2022/05/04 13:01:36;;;;;;;0.10;0.10;;;;;;;;;;5005192;28;20244;-75
2022/05/04 13:04:22;;;;;;;0.00;0.00;;;;;;;;;;5010282;28;20369;-75
2022/05/04 13:06:56;;;;;;;0.00;0.00;;;;;;;;;;5009231;28;20253;-80
2022/05/04 13:09:24;;;;;;;0.00;0.00;;;;;;;;;;5007828;28;20206;-80
2022/05/04 13:11:55;;;;;;;0.05;0.05;;;;;;;;;;5008813;28;20318;-79
2022/05/04 13:14:23;;;;;;;0.10;0.10;;;;;;;;;;5008185;28;20213;-79
2022/05/04 13:16:52;;;;;;;0.00;0.00;;;;;;;;;;5009126;28;20336;-80
2022/05/04 13:19:21;;;;;;;0.00;0.00;;;;;;;;;;5007376;28;20233;-79
2022/05/04 13:21:53;;;;;;;0.00;0.00;;;;;;;;;;5008120;28;20247;-79
2022/05/04 13:24:40;;;;;;;0.00;0.00;;;;;;;;;;5009047;28;20212;-84
2022/05/04 13:27:24;;;;;;;0.08;0.08;;;;;;;;;;4979235;28;20243;-79
2022/05/04 13:29:54;;;;;;;0.00;0.00;;;;;;;;;;4984160;28;20238;-80
2022/05/04 13:32:27;;;;;;;0.00;0.00;;;;;;;;;;4956608;28;20529;-81
2022/05/04 13:34:57;;;;;;;0.08;0.08;;;;;;;;;;4964975;29;20440;-81
2022/05/04 13:39:53;;;;;;;0.00;0.00;;;;;;;;;;5043602;28;20297;-80
2022/05/04 13:42:25;;;;;;;0.00;0.00;;;;;;;;;;5033022;28;20290;-80
2022/05/04 13:44:58;;;;;;;0.00;0.00;;;;;;;;;;5045559;28;20203;-78
2022/05/04 13:47:27;;;;;;;0.10;0.10;;;;;;;;;;5033300;28;20312;-81
2022/05/04 13:49:57;;;;;;;0.10;0.10;;;;;;;;;;5044861;28;20208;-78
2022/05/04 13:55:08;;;;;;;0.00;0.00;;;;;;;;;;5034134;28;20191;-81
2022/05/04 13:57:36;;;;;;;0.00;0.00;;;;;;;;;;5043583;28;20267;-80
2022/05/04 14:00:03;;;;;;;0.00;0.00;;;;;;;;;;5044554;28;20277;-80
2022/05/04 14:02:29;;;;;;;0.08;0.08;;;;;;;;;;5052974;28;20241;-77
2022/05/04 14:04:55;;;;;;;0.00;0.00;;;;;;;;;;5064699;28;20264;-80
2022/05/04 14:07:24;;;;;;;0.10;0.10;;;;;;;;;;5052989;28;20242;-80
2022/05/04 14:09:51;;;;;;;0.10;0.10;;;;;;;;;;5063915;28;20226;-80
2022/05/04 14:12:17;;;;;;;0.10;0.10;;;;;;;;;;5053021;28;20254;-79
2022/05/04 14:15:03;;;;;;;0.10;0.10;;;;;;;;;;5064501;28;20207;-79
2022/05/04 14:17:31;;;;;;;0.10;0.10;;;;;;;;;;5052657;28;20246;-78
2022/05/04 14:19:58;;;;;;;1.08;1.08;;;;;;;;;;5064406;28;20334;-81
2022/05/04 14:22:24;;;;;;;0.10;0.10;;;;;;;;;;5052940;28;20395;-80
2022/05/04 14:24:51;;;;;;;0.08;0.08;;;;;;;;;;5064394;28;20205;-80
2022/05/04 14:27:18;;;;;;;0.10;0.10;;;;;;;;;;5052600;28;20237;-80
2022/05/04 14:29:48;;;;;;;0.10;0.10;;;;;;;;;;5063916;28;20222;-82
2022/05/04 14:32:15;;;;;;;0.10;0.10;;;;;;;;;;5018084;28;20507;-80
2022/05/04 14:34:41;;;;;;;0.00;0.00;;;;;;;;;;5043957;28;20200;-79
2022/05/04 14:37:08;;;;;;;0.10;0.10;;;;;;;;;;5032670;28;20424;-80
2022/05/04 14:39:34;;;;;;;0.00;0.00;;;;;;;;;;5043767;28;20218;-81
2022/05/04 14:42:01;;;;;;;0.08;0.08;;;;;;;;;;5032571;28;20571;-80
2022/05/04 14:44:27;;;;;;;0.10;0.10;;;;;;;;;;5043876;28;20214;-80
2022/05/04 14:46:55;;;;;;;0.00;0.00;;;;;;;;;;5031218;28;20256;-79
2022/05/04 14:49:22;;;;;;;0.00;0.00;;;;;;;;;;5043303;28;20208;-78
2022/05/04 14:51:48;;;;;;;0.00;0.00;;;;;;;;;;5032462;28;20249;-78
2022/05/04 14:54:14;;;;;;;0.08;0.08;;;;;;;;;;5043400;28;20207;-78
2022/05/04 14:56:41;;;;;;;0.00;0.00;;;;;;;;;;5032339;28;20241;-78
2022/05/04 14:59:07;;;;;;;0.00;0.00;;;;;;;;;;5043060;28;20233;-78
2022/05/04 15:01:41;;;;;;;0.10;0.10;;;;;;;;;;5032412;28;20272;-79
2022/05/04 15:06:52;;;;;;;0.00;0.00;;;;;;;;;;5032348;28;20318;-80
2022/05/04 15:09:19;;;;;;;0.00;0.00;;;;;;;;;;5043648;28;20273;-80
2022/05/04 15:11:46;;;;;;;0.10;0.10;;;;;;;;;;5032723;28;20408;-80
2022/05/04 15:14:12;;;;;;;0.00;0.00;;;;;;;;;;5043283;28;20201;-79
2022/05/04 15:16:39;;;;;;;0.00;0.00;;;;;;;;;;5031898;28;20244;-81
2022/05/04 15:19:06;;;;;;;0.10;0.10;;;;;;;;;;5042430;28;20239;-79
2022/05/04 15:21:34;;;;;;;0.00;0.00;;;;;;;;;;5031285;28;20246;-77
2022/05/04 15:24:00;;;;;;;0.00;0.00;;;;;;;;;;5042393;28;20215;-81
2022/05/04 15:26:27;;;;;;;0.00;0.00;;;;;;;;;;5031840;28;20242;-78
2022/05/04 15:28:53;;;;;;;0.00;0.00;;;;;;;;;;5042528;28;20207;-78
2022/05/04 15:31:20;;;;;;;0.00;0.00;;;;;;;;;;5031704;28;20415;-79
2022/05/04 15:33:46;;;;;;;0.00;0.00;;;;;;;;;;5042402;28;20203;-78